createdAt,value
2019-04-16T00:00:13.991Z,1.80
2019-04-16T00:02:55.783Z,1.90
2019-04-16T00:05:27.736Z,1.80
2019-04-16T00:07:57.546Z,1.80
2019-04-16T00:10:45.524Z,1.60
2019-04-16T00:13:15.555Z,1.70
2019-04-16T00:15:43.942Z,1.80
2019-04-16T00:18:12.408Z,1.70
2019-04-16T00:20:58.785Z,1.70
2019-04-16T00:23:31.530Z,1.80
2019-04-16T00:25:59.905Z,1.70
2019-04-16T00:28:30.474Z,1.80
2019-04-16T00:30:58.337Z,1.70
2019-04-16T00:33:26.989Z,1.70
2019-04-16T00:35:55.448Z,1.83
2019-04-16T00:38:23.849Z,1.70
2019-04-16T00:40:52.217Z,1.70
2019-04-16T00:43:20.604Z,2.00
2019-04-16T00:45:49.006Z,1.87
2019-04-16T00:48:18.876Z,1.70
2019-04-16T00:50:48.663Z,1.80
2019-04-16T00:53:17.054Z,1.77
2019-04-16T00:55:45.852Z,1.80
2019-04-16T00:58:14.453Z,1.63
2019-04-16T01:00:42.882Z,1.90
2019-04-16T01:03:11.253Z,1.90
2019-04-16T01:05:39.629Z,1.70
2019-04-16T01:08:08.050Z,1.80
2019-04-16T01:10:36.503Z,1.83
2019-04-16T01:13:04.884Z,1.90
2019-04-16T01:15:34.720Z,1.87
2019-04-16T01:18:07.829Z,1.87
2019-04-16T01:20:35.072Z,1.77
2019-04-16T01:23:05.118Z,1.73
2019-04-16T01:25:33.490Z,1.87
2019-04-16T01:28:12.417Z,1.70
2019-04-16T01:30:51.648Z,1.90
2019-04-16T01:33:21.689Z,1.87
2019-04-16T01:35:57.549Z,1.83
2019-04-16T01:38:42.964Z,1.83
2019-04-16T01:41:12.997Z,1.70
2019-04-16T01:43:41.379Z,1.70
2019-04-16T01:46:09.779Z,1.93
2019-04-16T01:48:38.943Z,1.77
2019-04-16T01:51:08.341Z,1.67
2019-04-16T01:53:36.773Z,1.80
2019-04-16T01:56:05.141Z,1.70
2019-04-16T01:58:34.503Z,1.70
2019-04-16T02:01:03.586Z,1.80
2019-04-16T02:03:31.957Z,1.80
2019-04-16T02:06:00.354Z,1.60
2019-04-16T02:08:31.039Z,1.83
2019-04-16T02:10:58.790Z,1.73
2019-04-16T02:13:27.176Z,1.77
2019-04-16T02:15:55.807Z,1.70
2019-04-16T02:18:24.180Z,1.90
2019-04-16T02:20:54.193Z,1.80
2019-04-16T02:23:23.257Z,1.70
2019-04-16T02:25:52.013Z,1.50
2019-04-16T02:28:21.790Z,1.60
2019-04-16T02:30:50.699Z,1.70
2019-04-16T02:33:19.085Z,1.50
2019-04-16T02:35:48.578Z,1.77
2019-04-16T02:38:16.981Z,1.70
2019-04-16T02:40:51.614Z,1.80
2019-04-16T02:43:15.746Z,1.53
2019-04-16T02:45:44.136Z,1.83
2019-04-16T02:48:16.681Z,1.90
2019-04-16T02:50:45.863Z,1.70
2019-04-16T02:53:32.185Z,1.80
2019-04-16T02:56:02.177Z,1.80
2019-04-16T02:58:34.514Z,1.60
2019-04-16T03:01:06.916Z,1.80
2019-04-16T03:03:36.978Z,1.73
2019-04-16T03:06:05.376Z,1.80
2019-04-16T03:08:36.223Z,1.60
2019-04-16T03:11:03.989Z,1.90
2019-04-16T03:13:32.374Z,1.70
2019-04-16T03:16:06.257Z,1.70
2019-04-16T03:18:40.228Z,1.63
2019-04-16T03:21:08.572Z,1.97
2019-04-16T03:23:37.777Z,2.00
2019-04-16T03:26:07.856Z,1.73
2019-04-16T03:28:38.159Z,1.77
2019-04-16T03:31:08.897Z,1.80
2019-04-16T03:33:36.590Z,1.80
2019-04-16T03:36:05.008Z,1.60
2019-04-16T03:38:36.659Z,1.77
2019-04-16T03:41:04.507Z,2.10
2019-04-16T03:43:33.467Z,1.87
2019-04-16T03:46:01.854Z,2.13
2019-04-16T03:48:30.241Z,1.77
2019-04-16T03:51:00.452Z,2.00
2019-04-16T03:53:29.452Z,2.03
2019-04-16T03:55:58.317Z,2.20
2019-04-16T03:58:27.428Z,1.97
2019-04-16T04:00:55.809Z,2.10
2019-04-16T04:03:26.161Z,1.70
2019-04-16T04:05:57.663Z,1.90
2019-04-16T04:08:26.054Z,2.20
2019-04-16T04:10:54.429Z,1.93
2019-04-16T04:13:22.808Z,1.90
2019-04-16T04:15:51.205Z,1.87
2019-04-16T04:18:19.593Z,2.10
2019-04-16T04:20:50.590Z,2.13
2019-04-16T04:23:18.046Z,1.80
2019-04-16T04:25:48.068Z,2.03
2019-04-16T04:28:19.963Z,2.07
2019-04-16T04:30:48.699Z,2.10
2019-04-16T04:33:34.031Z,1.87
2019-04-16T04:36:02.799Z,1.90
2019-04-16T04:38:33.575Z,2.00
2019-04-16T04:41:01.225Z,2.10
2019-04-16T04:43:31.960Z,2.10
2019-04-16T04:46:00.011Z,2.00
2019-04-16T04:48:28.908Z,2.10
2019-04-16T04:50:57.301Z,1.90
2019-04-16T04:53:25.677Z,1.83
2019-04-16T04:55:54.395Z,2.07
2019-04-16T04:58:25.089Z,1.90
2019-04-16T05:00:53.467Z,2.03
2019-04-16T05:03:41.721Z,1.70
2019-04-16T05:06:31.412Z,2.00
2019-04-16T05:09:00.592Z,2.10
2019-04-16T05:11:29.827Z,2.10
2019-04-16T05:13:58.220Z,2.00
2019-04-16T05:16:26.877Z,1.80
2019-04-16T05:18:55.316Z,2.00
2019-04-16T05:21:23.807Z,2.00
2019-04-16T05:23:56.802Z,1.87
2019-04-16T05:26:22.296Z,2.00
2019-04-16T05:28:50.733Z,1.77
2019-04-16T05:31:24.299Z,2.17
2019-04-16T05:33:51.079Z,1.90
2019-04-16T05:36:21.394Z,1.90
2019-04-16T05:38:50.185Z,1.70
2019-04-16T05:41:22.050Z,1.70
2019-04-16T05:43:48.878Z,1.90
2019-04-16T05:46:17.393Z,1.77
2019-04-16T05:48:46.065Z,1.80
2019-04-16T05:51:15.480Z,2.50
2019-04-16T05:53:45.840Z,1.80
2019-04-16T05:56:15.874Z,1.80
2019-04-16T05:58:44.266Z,1.97
2019-04-16T06:01:17.147Z,1.70
2019-04-16T06:03:47.188Z,1.67
2019-04-16T06:06:15.553Z,1.50
2019-04-16T06:08:43.968Z,1.70
2019-04-16T06:11:26.654Z,1.87
2019-04-16T06:13:45.575Z,1.80
2019-04-16T06:16:25.409Z,1.87
2019-04-16T06:18:53.404Z,1.70
2019-04-16T06:21:25.780Z,1.60
2019-04-16T06:24:03.048Z,1.50
2019-04-16T06:26:29.525Z,1.93
2019-04-16T06:29:00.200Z,2.00
2019-04-16T06:31:42.532Z,2.00
2019-04-16T06:34:12.554Z,1.90
2019-04-16T06:36:45.492Z,1.77
2019-04-16T06:39:21.243Z,1.90
2019-04-16T06:42:07.608Z,1.70
2019-04-16T06:44:37.636Z,1.97
2019-04-16T06:47:14.966Z,1.50
2019-04-16T06:49:51.993Z,1.90
2019-04-16T06:52:28.156Z,1.77
2019-04-16T06:55:03.716Z,1.80
2019-04-16T06:57:32.685Z,1.83
2019-04-16T07:00:03.183Z,1.70
2019-04-16T07:03:02.162Z,1.63
2019-04-16T07:05:26.162Z,1.90
2019-04-16T07:08:02.132Z,1.70
2019-04-16T07:10:43.940Z,1.67
2019-04-16T07:13:02.191Z,1.50
2019-04-16T07:15:30.601Z,1.80
2019-04-16T07:17:58.978Z,1.70
2019-04-16T07:20:27.384Z,1.73
2019-04-16T07:22:55.796Z,1.60
2019-04-16T07:25:27.380Z,1.70
2019-04-16T07:28:05.006Z,2.40
2019-04-16T07:30:41.112Z,1.90
2019-04-16T07:33:23.821Z,1.63
2019-04-16T07:35:54.272Z,1.70
2019-04-16T07:38:41.033Z,1.80
2019-04-16T07:41:12.401Z,1.83
2019-04-16T07:44:04.414Z,1.70
2019-04-16T07:46:38.823Z,1.93
2019-04-16T07:49:08.847Z,1.70
2019-04-16T07:51:55.119Z,1.70
2019-04-16T07:54:37.180Z,2.00
2019-04-16T07:57:05.789Z,1.73
2019-04-16T07:59:34.170Z,1.67
2019-04-16T08:02:02.580Z,1.87
2019-04-16T08:04:35.313Z,1.80
2019-04-16T08:07:01.187Z,1.60
2019-04-16T08:09:30.171Z,2.00
2019-04-16T08:11:59.880Z,1.80
2019-04-16T08:14:28.595Z,1.57
2019-04-16T08:16:57.117Z,1.90
2019-04-16T08:19:36.823Z,1.70
2019-04-16T08:21:56.046Z,1.70
2019-04-16T08:24:28.916Z,1.60
2019-04-16T08:26:57.525Z,1.80
2019-04-16T08:29:26.709Z,1.80
2019-04-16T08:31:55.141Z,1.70
2019-04-16T08:34:23.576Z,1.80
2019-04-16T08:36:52.008Z,1.70
2019-04-16T08:39:20.385Z,1.70
2019-04-16T08:41:52.063Z,1.80
2019-04-16T08:44:18.803Z,1.80
2019-04-16T08:46:47.179Z,2.10
2019-04-16T08:49:15.653Z,1.80
2019-04-16T08:51:44.045Z,1.90
2019-04-16T08:54:15.254Z,1.83
2019-04-16T08:56:44.213Z,1.60
2019-04-16T08:59:12.560Z,1.90
2019-04-16T09:01:41.068Z,1.67
2019-04-16T09:04:09.453Z,1.80
2019-04-16T09:06:37.829Z,1.90
2019-04-16T09:09:25.600Z,1.90
2019-04-16T09:11:56.037Z,1.70
2019-04-16T09:14:26.583Z,1.80
2019-04-16T09:16:56.558Z,1.90
2019-04-16T09:19:28.168Z,1.70
2019-04-16T09:21:56.488Z,1.97
2019-04-16T09:24:41.780Z,1.70
2019-04-16T09:27:29.616Z,1.73
2019-04-16T09:30:05.141Z,1.70
2019-04-16T09:32:51.261Z,1.80
2019-04-16T09:35:22.279Z,2.20
2019-04-16T09:37:52.291Z,1.80
2019-04-16T09:40:31.409Z,1.80
2019-04-16T09:43:01.498Z,1.90
2019-04-16T09:45:29.885Z,2.00
2019-04-16T09:47:58.277Z,2.03
2019-04-16T09:50:26.741Z,2.00
2019-04-16T09:52:56.133Z,1.80
2019-04-16T09:55:25.144Z,1.80
2019-04-16T09:57:53.683Z,1.97
2019-04-16T10:00:32.613Z,1.80
2019-04-16T10:03:02.665Z,1.60
2019-04-16T10:05:31.408Z,1.87
2019-04-16T10:07:59.804Z,2.07
2019-04-16T10:10:29.065Z,1.80
2019-04-16T10:12:57.688Z,2.20
2019-04-16T10:15:26.166Z,1.90
2019-04-16T10:18:01.360Z,2.00
2019-04-16T10:20:30.800Z,1.83
2019-04-16T10:23:04.813Z,1.90
2019-04-16T10:25:33.718Z,1.80
2019-04-16T10:28:05.018Z,1.70
2019-04-16T10:30:36.158Z,1.80
2019-04-16T10:33:04.754Z,2.00
2019-04-16T10:35:36.098Z,2.00
2019-04-16T10:38:08.042Z,2.00
2019-04-16T10:40:42.168Z,1.77
2019-04-16T10:43:12.809Z,1.90
2019-04-16T10:45:42.922Z,1.90
2019-04-16T10:48:19.268Z,2.03
2019-04-16T10:51:01.451Z,2.03
2019-04-16T10:53:46.852Z,2.17
2019-04-16T10:56:21.274Z,2.40
2019-04-16T10:59:09.233Z,2.10
2019-04-16T11:01:40.926Z,1.93
2019-04-16T11:04:10.966Z,2.20
2019-04-16T11:06:46.780Z,1.90
2019-04-16T11:09:15.216Z,1.90
2019-04-16T11:11:43.636Z,1.90
2019-04-16T11:14:12.089Z,1.80
2019-04-16T11:16:42.159Z,2.50
2019-04-16T11:19:12.245Z,1.93
2019-04-16T11:21:40.619Z,1.70
2019-04-16T11:24:09.808Z,2.23
2019-04-16T11:27:04.289Z,1.80
2019-04-16T11:29:34.735Z,1.90
2019-04-16T11:32:04.171Z,2.10
2019-04-16T11:35:16.720Z,1.93
2019-04-16T11:40:41.069Z,2.00
2019-04-16T11:43:12.874Z,1.93
2019-04-16T11:46:03.088Z,2.03
2019-04-16T11:48:37.590Z,1.90
2019-04-16T11:51:08.784Z,2.00
2019-04-16T11:53:37.560Z,2.10
2019-04-16T11:56:06.751Z,1.90
2019-04-16T11:58:40.145Z,1.90
2019-04-16T12:01:13.151Z,1.90
2019-04-16T12:03:51.997Z,1.90
2019-04-16T12:06:34.524Z,1.90
2019-04-16T12:09:20.430Z,1.63
2019-04-16T12:11:52.352Z,1.90
2019-04-16T12:14:35.130Z,1.80
2019-04-16T12:17:22.414Z,2.07
2019-04-16T12:19:55.729Z,1.87
2019-04-16T12:22:42.058Z,1.90
2019-04-16T12:25:21.760Z,2.13
2019-04-16T12:28:06.504Z,2.00
2019-04-16T12:30:52.506Z,2.10
2019-04-16T12:33:40.604Z,2.10
2019-04-16T12:36:20.449Z,2.13
2019-04-16T12:38:57.065Z,1.90
2019-04-16T12:41:45.189Z,2.27
2019-04-16T12:44:26.872Z,2.00
2019-04-16T12:46:59.726Z,2.00
2019-04-16T12:49:41.788Z,1.97
2019-04-16T12:52:24.251Z,1.90
2019-04-16T12:55:10.904Z,2.03
2019-04-16T12:57:48.047Z,2.17
2019-04-16T13:00:34.511Z,1.80
2019-04-16T13:03:05.347Z,2.13
2019-04-16T13:05:37.322Z,2.00
2019-04-16T13:08:19.308Z,2.13
2019-04-16T13:10:52.330Z,2.10
2019-04-16T13:13:38.773Z,2.03
2019-04-16T13:16:14.462Z,2.20
2019-04-16T13:19:07.012Z,2.07
2019-04-16T13:24:29.824Z,1.97
2019-04-16T13:26:59.885Z,1.90
2019-04-16T13:29:30.590Z,2.10
2019-04-16T13:31:59.383Z,2.20
2019-04-16T13:34:29.849Z,2.07
2019-04-16T13:36:59.580Z,2.13
2019-04-16T13:39:35.782Z,1.90
2019-04-16T13:42:04.221Z,2.10
2019-04-16T13:44:37.622Z,2.10
2019-04-16T13:47:08.785Z,1.97
2019-04-16T13:49:44.277Z,1.90
2019-04-16T13:52:13.077Z,2.03
2019-04-16T13:55:02.481Z,1.90
2019-04-16T13:57:39.894Z,2.10
2019-04-16T14:00:26.291Z,1.93
2019-04-16T14:02:56.616Z,2.07
2019-04-16T14:05:25.177Z,2.13
2019-04-16T14:07:53.752Z,2.10
2019-04-16T14:10:22.301Z,2.10
2019-04-16T14:12:50.937Z,1.93
2019-04-16T14:15:31.644Z,2.20
2019-04-16T14:17:53.404Z,1.97
2019-04-16T14:20:22.055Z,2.20
2019-04-16T14:22:53.356Z,2.13
2019-04-16T14:25:20.493Z,2.10
2019-04-16T14:27:48.877Z,2.33
2019-04-16T14:30:18.917Z,2.00
2019-04-16T14:32:47.309Z,2.20
2019-04-16T14:35:32.415Z,2.00
2019-04-16T14:37:50.321Z,2.10
2019-04-16T14:40:22.560Z,1.83
2019-04-16T14:42:56.202Z,2.13
2019-04-16T14:45:26.004Z,2.10
2019-04-16T14:47:54.376Z,2.33
2019-04-16T14:50:23.605Z,2.00
2019-04-16T14:52:53.386Z,2.10
2019-04-16T14:55:23.424Z,2.40
2019-04-16T14:58:09.871Z,2.17
2019-04-16T15:00:56.176Z,2.03
2019-04-16T15:03:43.431Z,2.10
2019-04-16T15:06:22.534Z,2.27
2019-04-16T15:09:08.853Z,2.20
2019-04-16T15:11:50.851Z,2.23
2019-04-16T15:14:23.444Z,2.30
2019-04-16T15:16:52.712Z,2.33
2019-04-16T15:19:34.874Z,2.37
2019-04-16T15:22:20.745Z,2.30
2019-04-16T15:24:50.797Z,2.17
2019-04-16T15:27:37.058Z,2.27
2019-04-16T15:30:18.051Z,2.30
2019-04-16T15:32:56.679Z,2.30
2019-04-16T15:35:32.332Z,2.40
2019-04-16T15:38:20.678Z,2.10
2019-04-16T15:40:51.785Z,2.43
2019-04-16T15:43:23.065Z,2.60
2019-04-16T15:45:59.067Z,2.50
2019-04-16T15:48:50.407Z,2.30
2019-04-16T15:51:27.186Z,2.20
2019-04-16T15:54:09.178Z,2.50
2019-04-16T15:56:51.295Z,2.30
2019-04-16T15:59:24.092Z,2.50
2019-04-16T16:02:02.934Z,2.33
2019-04-16T16:04:50.859Z,2.40
2019-04-16T16:07:24.031Z,2.40
2019-04-16T16:09:52.619Z,2.30
2019-04-16T16:12:24.113Z,2.30
2019-04-16T16:14:52.523Z,2.50
2019-04-16T16:17:22.544Z,2.57
2019-04-16T16:19:51.038Z,2.33
2019-04-16T16:22:19.546Z,2.40
2019-04-16T16:24:47.928Z,2.40
2019-04-16T16:27:16.326Z,2.30
2019-04-16T16:29:44.726Z,2.50
2019-04-16T16:32:13.082Z,3.20
2019-04-16T16:34:41.515Z,2.90
2019-04-16T16:37:09.884Z,2.57
2019-04-16T16:39:38.248Z,2.30
2019-04-16T16:42:06.656Z,2.47
2019-04-16T16:44:35.053Z,2.33
2019-04-16T16:47:07.797Z,2.50
2019-04-16T16:49:36.164Z,2.47
2019-04-16T16:52:06.174Z,2.53
2019-04-16T16:54:34.664Z,2.30
2019-04-16T16:57:08.245Z,2.50
2019-04-16T16:59:37.354Z,5.20
2019-04-16T17:02:10.734Z,3.10
2019-04-16T17:04:40.746Z,2.60
2019-04-16T17:07:09.894Z,2.50
2019-04-16T17:09:38.355Z,2.30
2019-04-16T17:12:06.964Z,2.53
2019-04-16T17:14:37.748Z,2.60
2019-04-16T17:17:13.873Z,3.40
2019-04-16T17:19:36.676Z,2.87
2019-04-16T17:22:05.858Z,3.10
2019-04-16T17:24:34.239Z,2.50
2019-04-16T17:27:02.664Z,2.33
2019-04-16T17:29:31.045Z,2.50
2019-04-16T17:31:59.442Z,2.30
2019-04-16T17:34:27.784Z,2.37
2019-04-16T17:36:56.262Z,2.33
2019-04-16T17:39:29.186Z,2.40
2019-04-16T17:42:04.569Z,2.10
2019-04-16T17:44:45.650Z,2.20
2019-04-16T17:47:33.173Z,2.43
2019-04-16T17:50:04.744Z,2.37
2019-04-16T17:52:45.065Z,2.20
2019-04-16T17:55:27.048Z,2.20
2019-04-16T17:57:59.802Z,2.20
2019-04-16T18:00:45.942Z,2.50
2019-04-16T18:03:37.046Z,2.50
2019-04-16T18:06:06.950Z,2.40
2019-04-16T18:08:55.294Z,2.20
2019-04-16T18:11:25.310Z,2.90
2019-04-16T18:14:06.638Z,2.90
2019-04-16T18:16:38.509Z,2.43
2019-04-16T18:19:24.923Z,2.40
2019-04-16T18:21:57.722Z,2.40
2019-04-16T18:24:28.086Z,2.40
2019-04-16T18:27:06.790Z,2.93
2019-04-16T18:29:48.635Z,2.50
2019-04-16T18:32:27.738Z,2.60
2019-04-16T18:35:16.103Z,2.40
2019-04-16T18:37:48.746Z,2.40
2019-04-16T18:40:26.334Z,2.80
2019-04-16T18:42:59.194Z,2.70
2019-04-16T18:45:45.547Z,2.20
2019-04-16T18:48:18.611Z,2.30
2019-04-16T18:50:46.983Z,2.50
2019-04-16T18:53:15.347Z,2.57
2019-04-16T18:55:43.742Z,2.60
2019-04-16T18:58:12.126Z,2.43
2019-04-16T19:00:48.135Z,2.60
2019-04-16T19:03:16.508Z,2.40
2019-04-16T19:05:44.879Z,2.50
2019-04-16T19:08:14.947Z,2.63
2019-04-16T19:10:43.378Z,2.30
2019-04-16T19:13:12.285Z,2.50
2019-04-16T19:15:40.850Z,2.50
2019-04-16T19:18:19.353Z,2.80
2019-04-16T19:20:39.312Z,2.60
2019-04-16T19:23:07.702Z,2.40
2019-04-16T19:25:36.103Z,2.70
2019-04-16T19:28:05.997Z,2.83
2019-04-16T19:30:34.509Z,2.40
2019-04-16T19:33:02.998Z,2.70
2019-04-16T19:35:31.362Z,2.67
2019-04-16T19:38:02.327Z,2.47
2019-04-16T19:40:29.972Z,2.53
2019-04-16T19:43:02.607Z,2.80
2019-04-16T19:45:28.380Z,2.63
2019-04-16T19:48:00.296Z,2.53
2019-04-16T19:50:33.087Z,2.47
2019-04-16T19:52:56.963Z,2.47
2019-04-16T19:55:25.494Z,2.60
2019-04-16T19:57:56.945Z,2.70
2019-04-16T20:00:25.615Z,2.70
2019-04-16T20:02:54.190Z,2.53
2019-04-16T20:05:22.555Z,2.57
2019-04-16T20:07:50.969Z,2.80
2019-04-16T20:10:19.587Z,2.80
2019-04-16T20:12:47.976Z,3.13
2019-04-16T20:15:16.379Z,2.87
2019-04-16T20:17:44.859Z,2.80
2019-04-16T20:20:13.472Z,2.77
2019-04-16T20:22:41.995Z,3.00
2019-04-16T20:25:10.496Z,2.63
2019-04-16T20:27:39.702Z,2.50
2019-04-16T20:30:10.626Z,2.70
2019-04-16T20:32:42.198Z,2.90
2019-04-16T20:35:09.358Z,2.90
2019-04-16T20:37:37.863Z,2.50
2019-04-16T20:40:06.985Z,2.63
2019-04-16T20:42:35.377Z,2.80
2019-04-16T20:45:04.938Z,2.93
2019-04-16T20:47:38.761Z,2.80
2019-04-16T20:50:08.492Z,2.50
2019-04-16T20:52:36.953Z,2.50
2019-04-16T20:55:06.249Z,2.60
2019-04-16T20:57:34.888Z,2.93
2019-04-16T21:00:10.278Z,2.70
2019-04-16T21:02:35.924Z,2.60
2019-04-16T21:05:21.586Z,2.67
2019-04-16T21:07:37.458Z,2.70
2019-04-16T21:10:07.290Z,2.70
2019-04-16T21:12:35.599Z,3.03
2019-04-16T21:15:05.109Z,2.90
2019-04-16T21:17:38.141Z,3.47
2019-04-16T21:20:05.092Z,4.23
2019-04-16T21:22:33.452Z,4.00
2019-04-16T21:25:01.848Z,3.60
2019-04-16T21:27:31.862Z,3.00
2019-04-16T21:30:03.113Z,3.13
2019-04-16T21:32:48.697Z,3.30
2019-04-16T21:35:21.526Z,3.27
2019-04-16T21:38:06.762Z,2.87
2019-04-16T21:40:35.139Z,3.43
2019-04-16T21:43:06.962Z,3.00
2019-04-16T21:45:33.626Z,3.50
2019-04-16T21:48:02.021Z,3.47
2019-04-16T21:50:30.379Z,3.13
2019-04-16T21:52:58.817Z,3.50
2019-04-16T21:55:27.196Z,2.90
2019-04-16T21:57:55.565Z,3.00
2019-04-16T22:00:38.498Z,3.20
2019-04-16T22:03:11.294Z,2.90
2019-04-16T22:05:39.670Z,3.00
2019-04-16T22:08:08.143Z,2.83
2019-04-16T22:10:36.524Z,3.03
2019-04-16T22:13:04.971Z,3.33
2019-04-16T22:15:33.565Z,2.60
2019-04-16T22:18:07.419Z,3.10
2019-04-16T22:20:35.631Z,2.87
2019-04-16T22:23:02.154Z,2.93
2019-04-16T22:25:30.514Z,3.20
2019-04-16T22:27:58.911Z,2.63
2019-04-16T22:30:27.279Z,2.90
2019-04-16T22:32:55.787Z,2.90
2019-04-16T22:35:24.519Z,2.80
2019-04-16T22:37:52.969Z,2.70
2019-04-16T22:40:23.585Z,2.50
2019-04-16T22:43:00.868Z,2.77
2019-04-16T22:45:34.865Z,3.10
2019-04-16T22:48:03.482Z,2.90
2019-04-16T22:50:34.712Z,3.20
2019-04-16T22:53:01.891Z,2.60
2019-04-16T22:55:30.259Z,2.90
2019-04-16T22:58:02.438Z,2.60
2019-04-16T23:00:33.039Z,2.80
2019-04-16T23:03:01.414Z,2.60
2019-04-16T23:05:30.798Z,2.73
2019-04-16T23:07:59.818Z,2.43
2019-04-16T23:10:28.282Z,2.40
2019-04-16T23:13:00.694Z,2.50
2019-04-16T23:15:27.906Z,2.50
2019-04-16T23:17:56.195Z,2.43
2019-04-16T23:20:29.654Z,2.30
2019-04-16T23:22:54.634Z,2.37
2019-04-16T23:25:26.970Z,2.80
2019-04-16T23:27:53.026Z,2.60
2019-04-16T23:30:22.777Z,2.10
2019-04-16T23:32:51.149Z,2.43
2019-04-16T23:35:19.513Z,2.47
2019-04-16T23:37:47.892Z,2.37
2019-04-16T23:40:16.275Z,2.40
2019-04-16T23:42:47.486Z,2.43
2019-04-16T23:45:34.122Z,2.57
2019-04-16T23:48:16.128Z,2.33
2019-04-16T23:51:02.313Z,2.60
2019-04-16T23:53:38.141Z,2.50
2019-04-16T23:56:09.734Z,2.30
2019-04-16T23:58:39.742Z,2.40
